Time;durP1;ratioP1;P1;durP2;ratioP2;P2;SDS_P1;SDS_P2;PMS_P1;PMS_P2;Temp;Humidity;BMP_temperature;BMP_pressure;BME280_temperature;BME280_humidity;BME280_pressure;Samples;Min_cycle;Max_cycle;Signal;HPM_P1;HPM_P2
2020/12/20 00:00:09;;;;;;;6.30;2.97;;;9.80;97.70;;;;;;4923398;29;20036;-81
2020/12/20 00:02:35;;;;;;;4.20;2.97;;;9.90;75.90;;;;;;4907664;29;20389;-82
2020/12/20 00:05:01;;;;;;;3.50;2.83;;;;;;;;;;4923541;29;20035;-79
2020/12/20 00:07:27;;;;;;;7.47;4.57;;;10.10;90.90;;;;;;4955917;29;20027;-81
2020/12/20 00:09:52;;;;;;;4.63;3.55;;;10.00;76.20;;;;;;4939080;29;20027;-82
2020/12/20 00:12:18;;;;;;;5.50;3.55;;;10.20;97.90;;;;;;4955883;28;20107;-83
2020/12/20 00:14:44;;;;;;;5.55;3.00;;;;;;;;;;4938785;29;20031;-79
2020/12/20 00:17:10;;;;;;;3.80;3.10;;;10.00;75.90;;;;;;4955739;29;20478;-80
2020/12/20 00:19:36;;;;;;;8.55;5.85;;;10.20;78.10;;;;;;4906948;29;20110;-81
2020/12/20 00:22:03;;;;;;;5.18;4.38;;;9.80;98.60;;;;;;4938914;29;20036;-80
2020/12/20 00:24:29;;;;;;;12.07;7.40;;;;;;;;;;4938710;29;20019;-81
2020/12/20 00:26:55;;;;;;;7.05;4.63;;;9.90;78.50;;;;;;4938547;29;20051;-83
2020/12/20 00:29:21;;;;;;;6.85;3.67;;;;;;;;;;4955776;29;20377;-82
2020/12/20 00:31:47;;;;;;;6.70;3.80;;;9.70;93.80;;;;;;4938411;29;20026;-80
2020/12/20 00:34:12;;;;;;;8.95;6.95;;;9.70;83.10;;;;;;4906846;29;20031;-80
2020/12/20 00:36:38;;;;;;;6.22;3.95;;;;;;;;;;4922587;29;20031;-80
2020/12/20 00:39:04;;;;;;;3.80;3.03;;;9.90;94.00;;;;;;4922454;29;20565;-82
2020/12/20 00:41:30;;;;;;;7.45;4.28;;;9.80;92.00;;;;;;4938424;29;20038;-83
2020/12/20 00:43:56;;;;;;;5.03;3.35;;;;;;;;;;4938045;28;20032;-80
2020/12/20 00:46:22;;;;;;;8.38;4.00;;;9.50;94.40;;;;;;4921162;29;20400;-82
2020/12/20 00:48:48;;;;;;;4.50;3.45;;;9.70;84.50;;;;;;4922455;29;20027;-80
2020/12/20 00:51:14;;;;;;;6.13;3.13;;;;;;;;;;4922600;29;20123;-80
2020/12/20 00:53:39;;;;;;;5.72;3.22;;;9.80;93.70;;;;;;4938214;29;20114;-80
2020/12/20 00:56:05;;;;;;;7.70;3.30;;;9.60;81.00;;;;;;4938067;29;20038;-80
2020/12/20 00:58:34;;;;;;;3.95;3.03;;;9.80;90.60;;;;;;4937933;29;20055;-80
2020/12/20 01:01:00;;;;;;;3.53;2.90;;;9.60;99.00;;;;;;4938079;29;20167;-80
2020/12/20 01:03:27;;;;;;;5.07;3.33;;;9.90;93.50;;;;;;4955112;29;20042;-79
2020/12/20 01:05:53;;;;;;;3.70;2.70;;;;;;;;;;4921820;29;20039;-80
2020/12/20 01:08:19;;;;;;;5.25;3.28;;;;;;;;;;4955182;29;20051;-83
2020/12/20 01:10:44;;;;;;;5.28;3.20;;;9.90;92.50;;;;;;4937860;29;20031;-80
2020/12/20 01:13:10;;;;;;;6.80;3.00;;;9.80;79.50;;;;;;4937545;29;20031;-82
2020/12/20 01:15:36;;;;;;;3.15;2.78;;;;;;;;;;4938164;29;20040;-80
2020/12/20 01:18:02;;;;;;;4.82;3.40;;;9.90;92.30;;;;;;4921916;29;20019;-80
2020/12/20 01:20:27;;;;;;;5.95;3.25;;;9.80;80.10;;;;;;4954589;29;20449;-80
2020/12/20 01:22:53;;;;;;;4.43;3.00;;;9.80;98.80;;;;;;4905898;29;20031;-82
2020/12/20 01:25:18;;;;;;;4.60;2.72;;;9.90;98.60;;;;;;4921818;29;20119;-83
2020/12/20 01:27:44;;;;;;;3.03;2.72;;;9.90;78.50;;;;;;4954611;29;20039;-80
2020/12/20 01:30:10;;;;;;;3.95;2.90;;;9.90;97.10;;;;;;4921833;29;20082;-80
2020/12/20 01:32:35;;;;;;;5.32;2.97;;;9.80;99.20;;;;;;4921503;29;20458;-80
2020/12/20 01:35:01;;;;;;;3.60;2.63;;;9.00;79.80;;;;;;4937476;29;20035;-83
2020/12/20 01:37:27;;;;;;;3.75;2.97;;;;;;;;;;4921786;29;20034;-80
2020/12/20 01:39:53;;;;;;;5.20;3.03;;;9.80;92.50;;;;;;4937052;29;20035;-80
2020/12/20 01:42:18;;;;;;;3.78;2.63;;;9.70;80.00;;;;;;4921446;29;20054;-82
2020/12/20 01:44:44;;;;;;;4.15;2.70;;;;;;;;;;4921552;29;20110;-83
2020/12/20 01:47:10;;;;;;;4.45;2.83;;;;;;;;;;4937295;29;20027;-80
2020/12/20 01:49:36;;;;;;;3.13;2.80;;;9.70;99.30;;;;;;4937676;29;20030;-81
2020/12/20 01:52:01;;;;;;;4.50;3.90;;;9.70;91.50;;;;;;4937238;29;20164;-83
2020/12/20 01:54:28;;;;;;;4.30;2.95;;;;;;;;;;4921292;29;20023;-80
2020/12/20 01:56:54;;;;;;;3.15;2.83;;;;;;;;;;4953869;28;20023;-80
2020/12/20 01:59:19;;;;;;;3.45;3.15;;;9.70;99.50;;;;;;4937123;29;20494;-80
2020/12/20 02:01:45;;;;;;;5.30;3.15;;;10.00;94.00;;;;;;4937202;29;20031;-81
2020/12/20 02:04:11;;;;;;;5.70;3.08;;;;;;;;;;4921179;29;20027;-80
2020/12/20 02:06:40;;;;;;;4.65;2.95;;;9.80;99.90;;;;;;4921451;29;20024;-82
2020/12/20 02:09:05;;;;;;;3.72;2.90;;;9.50;94.40;;;;;;4921235;29;20063;-80
2020/12/20 02:11:31;;;;;;;4.18;3.25;;;;;;;;;;4936881;29;20138;-80
2020/12/20 02:13:57;;;;;;;6.43;3.80;;;9.60;99.90;;;;;;4936950;29;20031;-80
2020/12/20 02:16:22;;;;;;;6.20;3.88;;;9.60;85.00;;;;;;4921050;29;20023;-80
2020/12/20 02:18:49;;;;;;;4.03;3.63;;;;;;;;;;4905231;29;20042;-80
2020/12/20 02:21:15;;;;;;;4.75;3.58;;;9.30;98.00;;;;;;4936926;29;20027;-83
2020/12/20 02:23:47;;;;;;;5.32;3.88;;;9.40;99.90;;;;;;4921115;29;20106;-79
2020/12/20 02:26:22;;;;;;;5.35;3.17;;;9.30;89.10;;;;;;4922088;29;20035;-80
2020/12/20 02:28:51;;;;;;;5.40;3.38;;;9.00;95.20;;;;;;4922461;29;20063;-80
2020/12/20 02:31:17;;;;;;;3.92;3.20;;;9.00;85.20;;;;;;4921570;29;20115;-80
2020/12/20 02:33:43;;;;;;;5.50;3.65;;;;;;;;;;4921151;29;20101;-80
2020/12/20 02:36:10;;;;;;;6.55;3.53;;;9.40;97.70;;;;;;4937143;29;20471;-80
2020/12/20 02:38:36;;;;;;;6.35;3.63;;;9.40;98.40;;;;;;4905177;29;20035;-80
2020/12/20 02:41:02;;;;;;;5.50;3.80;;;;;;;;;;4921029;29;20079;-79
2020/12/20 02:43:28;;;;;;;3.88;3.45;;;9.50;99.90;;;;;;4936616;29;20083;-83
2020/12/20 02:45:53;;;;;;;6.10;3.88;;;9.30;90.90;;;;;;4936732;29;20462;-82
2020/12/20 02:48:19;;;;;;;5.50;3.80;;;9.20;99.90;;;;;;4905027;29;20116;-81
2020/12/20 02:50:45;;;;;;;5.55;3.45;;;9.30;99.50;;;;;;4936861;29;20035;-79
2020/12/20 02:53:10;;;;;;;7.05;3.40;;;9.40;97.90;;;;;;4920546;29;20035;-80
2020/12/20 02:55:36;;;;;;;6.72;3.47;;;;;;;;;;4920933;29;20027;-80
2020/12/20 02:58:02;;;;;;;5.50;3.30;;;9.10;99.60;;;;;;4953577;29;20055;-82
2020/12/20 03:00:28;;;;;;;4.05;3.40;;;9.20;92.70;;;;;;4953789;29;20050;-81
2020/12/20 03:02:54;;;;;;;5.57;3.22;;;;;;;;;;4920988;29;20377;-80
2020/12/20 03:05:19;;;;;;;4.15;3.30;;;9.10;99.90;;;;;;4953564;29;20458;-81
2020/12/20 03:07:46;;;;;;;5.60;3.15;;;9.20;92.40;;;;;;4936546;29;20035;-80
2020/12/20 03:10:12;;;;;;;4.82;3.00;;;;;;;;;;4924346;29;20027;-81
2020/12/20 03:12:37;;;;;;;4.50;3.08;;;9.30;99.40;;;;;;4939855;29;20426;-80
2020/12/20 03:15:03;;;;;;;4.90;3.20;;;9.20;92.40;;;;;;4924086;29;20031;-80
2020/12/20 03:17:30;;;;;;;5.78;3.53;;;;;;;;;;4908213;29;20470;-80
2020/12/20 03:19:55;;;;;;;7.00;3.45;;;9.30;99.90;;;;;;4923967;29;20139;-79
2020/12/20 03:22:21;;;;;;;4.13;3.22;;;9.20;99.40;;;;;;4939951;29;20121;-79
2020/12/20 03:24:47;;;;;;;5.25;3.40;;;8.90;99.90;;;;;;4923951;29;20122;-80
2020/12/20 03:27:12;;;;;;;6.78;3.72;;;9.10;99.90;;;;;;4908107;29;20034;-80
2020/12/20 03:29:38;;;;;;;5.22;3.70;;;9.20;91.40;;;;;;4924092;29;20031;-84
2020/12/20 03:32:03;;;;;;;5.22;3.78;;;9.20;91.50;;;;;;4956801;29;20031;-82
2020/12/20 03:34:29;;;;;;;5.82;3.55;;;;;;;;;;4939784;29;20073;-80
2020/12/20 03:36:55;;;;;;;6.07;3.53;;;;;;;;;;4923497;29;20027;-80
2020/12/20 03:39:21;;;;;;;6.47;3.53;;;;;;;;;;4956372;29;20366;-83
2020/12/20 03:41:47;;;;;;;4.75;3.35;;;8.80;99.90;;;;;;4923715;29;20110;-80
2020/12/20 03:44:13;;;;;;;5.80;3.60;;;;;;;;;;4923920;29;20408;-79
2020/12/20 03:46:39;;;;;;;5.75;3.25;;;9.00;99.90;;;;;;4939785;29;20385;-83
2020/12/20 03:49:04;;;;;;;5.20;3.40;;;;;;;;;;4923358;29;20031;-80
2020/12/20 03:51:30;;;;;;;5.97;4.05;;;9.00;99.90;;;;;;4939212;29;20024;-82
2020/12/20 03:53:56;;;;;;;6.60;3.75;;;9.40;99.90;;;;;;4923301;29;20071;-80
2020/12/20 03:56:22;;;;;;;4.32;3.45;;;;;;;;;;4907555;29;20040;-80
2020/12/20 03:58:48;;;;;;;7.88;4.22;;;;;;;;;;4939077;29;20047;-80
2020/12/20 04:01:13;;;;;;;6.43;3.63;;;9.10;91.30;;;;;;4939122;29;20031;-81
2020/12/20 04:03:39;;;;;;;6.40;3.72;;;;;;;;;;4907368;29;20034;-80
2020/12/20 04:06:05;;;;;;;4.60;3.40;;;9.20;96.40;;;;;;4923000;29;20030;-80
2020/12/20 04:08:31;;;;;;;6.57;3.20;;;9.10;92.10;;;;;;4923066;29;20035;-80
2020/12/20 04:10:56;;;;;;;4.60;3.47;;;9.10;99.90;;;;;;4923255;29;20130;-81
2020/12/20 04:13:22;;;;;;;4.95;3.38;;;9.10;99.90;;;;;;4923061;29;20031;-82
2020/12/20 04:15:48;;;;;;;6.95;3.38;;;9.00;91.90;;;;;;4938592;29;20079;-81
2020/12/20 04:18:13;;;;;;;5.03;3.60;;;9.10;99.90;;;;;;4907321;29;20031;-84
2020/12/20 04:20:39;;;;;;;6.03;3.40;;;9.00;99.90;;;;;;4938764;29;20062;-80
2020/12/20 04:23:05;;;;;;;5.85;3.75;;;9.00;91.90;;;;;;4922900;29;20069;-81
2020/12/20 04:25:31;;;;;;;4.75;3.78;;;;;;;;;;4907139;29;20059;-80
2020/12/20 04:27:56;;;;;;;4.65;3.30;;;9.10;99.90;;;;;;4938725;29;20030;-83
2020/12/20 04:30:24;;;;;;;4.95;3.55;;;9.10;91.10;;;;;;4938349;29;20393;-84
2020/12/20 04:32:50;;;;;;;6.47;3.45;;;;;;;;;;4922657;29;20141;-83
2020/12/20 04:35:15;;;;;;;4.03;3.28;;;9.10;98.20;;;;;;4955673;29;20110;-80
2020/12/20 04:37:41;;;;;;;5.57;3.60;;;9.10;90.60;;;;;;4906891;29;20028;-80
2020/12/20 04:40:07;;;;;;;7.05;3.50;;;;;;;;;;4938130;29;20474;-81
2020/12/20 04:42:32;;;;;;;7.65;3.50;;;9.20;99.90;;;;;;4922658;29;20023;-80
2020/12/20 04:44:58;;;;;;;7.82;3.13;;;9.10;90.20;;;;;;4922391;29;20078;-81
2020/12/20 04:47:24;;;;;;;4.00;2.97;;;9.10;95.50;;;;;;4922474;29;20094;-80
2020/12/20 04:49:51;;;;;;;5.18;3.20;;;8.90;97.90;;;;;;4922302;29;20070;-82
2020/12/20 04:52:17;;;;;;;5.30;3.55;;;8.90;96.20;;;;;;4922673;28;20033;-81
2020/12/20 04:54:45;;;;;;;6.05;4.10;;;9.10;96.50;;;;;;4922205;29;20038;-81
2020/12/20 04:57:13;;;;;;;5.80;3.95;;;9.20;99.90;;;;;;4906787;29;20458;-80
2020/12/20 04:59:38;;;;;;;4.80;3.78;;;9.00;90.90;;;;;;4922100;29;20047;-82
2020/12/20 05:02:04;;;;;;;5.57;4.00;;;9.00;91.10;;;;;;4922080;29;20812;-84
2020/12/20 05:04:30;;;;;;;4.50;3.60;;;;;;;;;;4906375;29;20043;-81
2020/12/20 05:06:56;;;;;;;6.05;3.95;;;8.70;98.10;;;;;;4937955;29;20453;-81
2020/12/20 05:09:21;;;;;;;9.70;3.70;;;8.50;91.20;;;;;;4922281;29;20027;-84
2020/12/20 05:11:47;;;;;;;5.05;3.05;;;;;;;;;;4922072;29;20027;-82
2020/12/20 05:14:14;;;;;;;5.53;3.60;;;8.90;99.90;;;;;;4937995;29;20533;-82
2020/12/20 05:16:40;;;;;;;4.43;3.40;;;9.10;99.90;;;;;;4922151;29;20034;-80
2020/12/20 05:19:07;;;;;;;5.05;3.30;;;9.00;90.70;;;;;;4921582;29;20047;-81
2020/12/20 05:21:33;;;;;;;6.35;3.42;;;8.90;98.30;;;;;;4921981;29;20035;-81
2020/12/20 05:23:59;;;;;;;6.80;4.05;;;9.20;99.50;;;;;;4937961;29;20031;-82
2020/12/20 05:26:25;;;;;;;5.82;4.82;;;8.80;97.60;;;;;;4921773;29;20027;-80
2020/12/20 05:28:52;;;;;;;5.90;4.95;;;8.90;99.90;;;;;;4922066;29;20134;-81
2020/12/20 05:31:18;;;;;;;6.25;4.07;;;8.90;91.60;;;;;;4921361;29;20035;-79
2020/12/20 05:33:43;;;;;;;6.28;4.15;;;8.80;99.90;;;;;;4905945;29;20027;-81
2020/12/20 05:36:09;;;;;;;4.57;3.75;;;8.80;91.80;;;;;;4937711;29;20363;-81
2020/12/20 05:38:36;;;;;;;4.45;3.70;;;9.00;97.50;;;;;;4937774;29;20023;-85
2020/12/20 05:41:02;;;;;;;9.45;4.03;;;8.90;99.90;;;;;;4922049;29;20050;-80
2020/12/20 05:43:28;;;;;;;4.95;3.53;;;8.80;92.00;;;;;;4921994;29;20454;-81
2020/12/20 05:46:00;;;;;;;5.22;3.70;;;8.90;91.40;;;;;;4937393;29;20102;-84
2020/12/20 05:48:27;;;;;;;5.60;3.42;;;8.80;99.90;;;;;;4906360;29;20121;-83
2020/12/20 05:50:57;;;;;;;7.80;3.45;;;8.80;97.10;;;;;;4921315;29;20039;-81
2020/12/20 05:53:27;;;;;;;6.13;3.33;;;8.70;99.90;;;;;;4922211;29;20034;-83
2020/12/20 05:55:56;;;;;;;9.50;3.70;;;9.10;97.80;;;;;;4921197;29;20027;-83
2020/12/20 05:58:22;;;;;;;6.63;3.35;;;;;;;;;;4921456;29;20186;-80
2020/12/20 06:00:48;;;;;;;4.00;3.60;;;8.70;99.90;;;;;;4921323;29;20054;-80
2020/12/20 06:03:13;;;;;;;5.88;3.72;;;8.80;91.60;;;;;;4921637;29;20031;-81
2020/12/20 06:05:45;;;;;;;6.10;3.67;;;8.80;99.90;;;;;;4905742;29;20027;-80
2020/12/20 06:08:21;;;;;;;5.85;3.55;;;8.80;99.90;;;;;;4905670;29;20059;-81
2020/12/20 06:10:48;;;;;;;5.07;3.50;;;9.10;96.00;;;;;;4905759;29;20482;-81
2020/12/20 06:13:21;;;;;;;5.53;3.30;;;8.90;90.00;;;;;;4921595;29;20118;-80
2020/12/20 06:15:51;;;;;;;5.35;3.38;;;8.80;99.90;;;;;;4906163;29;20458;-81
2020/12/20 06:18:29;;;;;;;17.08;11.55;;;8.90;98.90;;;;;;4954215;28;20041;-82
2020/12/20 06:20:59;;;;;;;9.82;6.72;;;9.10;91.60;;;;;;4921173;29;20043;-84
2020/12/20 06:23:32;;;;;;;33.17;19.52;;;8.70;99.90;;;;;;4921535;29;20032;-84
2020/12/20 06:25:58;;;;;;;8.30;5.35;;;8.60;99.90;;;;;;4936916;28;20027;-82
2020/12/20 06:28:26;;;;;;;7.40;4.88;;;8.60;99.90;;;;;;4921598;29;20090;-84
2020/12/20 06:30:52;;;;;;;9.10;5.80;;;8.70;92.80;;;;;;4905608;29;20381;-80
2020/12/20 06:33:39;;;;;;;4.18;3.25;;;8.70;92.90;;;;;;4921490;29;20094;-82
2020/12/20 06:36:10;;;;;;;12.63;7.25;;;8.70;97.10;;;;;;4922762;29;20062;-82
2020/12/20 06:38:36;;;;;;;7.15;5.30;;;9.00;98.90;;;;;;4921232;29;20374;-79
2020/12/20 06:41:02;;;;;;;7.18;3.42;;;;;;;;;;4921231;29;20039;-82
2020/12/20 06:43:46;;;;;;;4.95;3.30;;;8.90;89.40;;;;;;4955287;28;20019;-84
2020/12/20 06:46:12;;;;;;;7.15;4.75;;;;;;;;;;4911334;29;20064;-83
2020/12/20 06:48:38;;;;;;;5.60;3.38;;;;;;;;;;4940410;29;20449;-81
2020/12/20 06:51:05;;;;;;;22.80;11.98;;;9.10;99.90;;;;;;4924927;29;20401;-82
2020/12/20 06:53:46;;;;;;;43.83;18.40;;;8.80;97.10;;;;;;4924800;29;20110;-83
2020/12/20 06:56:19;;;;;;;7.80;4.80;;;8.70;97.40;;;;;;4957562;28;20037;-84
2020/12/20 06:58:44;;;;;;;6.32;4.50;;;8.80;90.30;;;;;;4908645;29;20058;-80
2020/12/20 07:01:10;;;;;;;6.50;3.55;;;8.80;91.10;;;;;;4908805;29;20035;-81
2020/12/20 07:03:38;;;;;;;7.45;3.97;;;8.70;90.90;;;;;;4924900;29;20027;-82
2020/12/20 07:06:06;;;;;;;6.18;4.47;;;8.60;95.70;;;;;;4909227;29;20027;-82
2020/12/20 07:08:32;;;;;;;5.13;3.88;;;8.50;98.20;;;;;;4956221;29;20122;-82
2020/12/20 07:11:18;;;;;;;4.93;3.92;;;8.60;91.10;;;;;;4924462;29;20494;-82
2020/12/20 07:13:45;;;;;;;5.88;4.53;;;8.60;96.10;;;;;;4924502;29;20023;-81
2020/12/20 07:16:21;;;;;;;7.63;4.13;;;8.70;89.90;;;;;;4908708;29;20027;-84
2020/12/20 07:18:53;;;;;;;7.40;3.60;;;9.20;99.90;;;;;;4925491;29;20028;-80
2020/12/20 07:21:19;;;;;;;8.20;3.72;;;8.50;99.90;;;;;;4939793;29;20057;-80
2020/12/20 07:24:16;;;;;;;6.28;3.88;;;8.70;90.10;;;;;;4957065;28;20486;-80
2020/12/20 07:26:41;;;;;;;7.45;3.70;;;8.70;98.30;;;;;;4939996;29;20538;-86
2020/12/20 07:29:07;;;;;;;5.88;3.63;;;8.60;90.70;;;;;;4923932;29;20159;-81
2020/12/20 07:31:33;;;;;;;5.75;4.07;;;;;;;;;;4923999;29;20027;-79
2020/12/20 07:33:59;;;;;;;5.30;3.50;;;8.40;99.90;;;;;;4939311;29;20057;-82
2020/12/20 07:36:25;;;;;;;6.15;3.95;;;;;;;;;;4939974;29;20104;-84
2020/12/20 07:38:51;;;;;;;5.70;3.70;;;8.70;90.30;;;;;;4939597;29;20035;-82
2020/12/20 07:41:17;;;;;;;4.88;4.07;;;;;;;;;;4923964;29;20124;-80
2020/12/20 07:43:47;;;;;;;5.90;3.65;;;8.60;98.00;;;;;;4939616;29;20531;-80
2020/12/20 07:46:13;;;;;;;19.05;9.55;;;8.60;90.90;;;;;;4923876;29;20086;-80
2020/12/20 07:48:39;;;;;;;22.83;16.50;;;;;;;;;;4923509;29;20032;-81
2020/12/20 07:51:09;;;;;;;5.82;4.55;;;8.80;99.90;;;;;;4939284;29;20482;-84
2020/12/20 07:53:36;;;;;;;6.65;5.25;;;8.70;97.90;;;;;;4923354;28;20117;-83
2020/12/20 07:56:01;;;;;;;7.00;5.93;;;8.80;90.80;;;;;;4923379;29;20527;-82
2020/12/20 07:58:30;;;;;;;7.47;4.93;;;8.60;91.40;;;;;;4923170;29;20134;-80
2020/12/20 08:01:03;;;;;;;5.88;3.95;;;9.00;99.90;;;;;;4939502;29;20086;-81
2020/12/20 08:03:29;;;;;;;5.25;4.18;;;9.10;98.10;;;;;;4923462;29;20027;-83
2020/12/20 08:06:04;;;;;;;6.20;4.18;;;9.00;90.10;;;;;;4923273;29;20030;-81
2020/12/20 08:08:31;;;;;;;7.10;3.78;;;;;;;;;;4939111;29;20055;-81
2020/12/20 08:10:56;;;;;;;7.13;6.07;;;8.90;97.90;;;;;;4939011;29;20028;-83
2020/12/20 08:13:22;;;;;;;5.95;5.30;;;8.80;98.00;;;;;;4923434;29;20111;-83
2020/12/20 08:15:49;;;;;;;5.80;5.20;;;;;;;;;;4923378;29;20027;-85
2020/12/20 08:18:15;;;;;;;4.50;3.42;;;;;;;;;;4938953;29;20035;-81
2020/12/20 08:20:41;;;;;;;6.28;4.53;;;8.70;99.90;;;;;;4938978;29;20047;-85
2020/12/20 08:23:07;;;;;;;12.48;9.57;;;;;;;;;;4922737;29;20046;-83
2020/12/20 08:25:33;;;;;;;6.90;4.13;;;8.70;99.90;;;;;;4939092;29;20023;-83
2020/12/20 08:27:58;;;;;;;4.85;3.85;;;8.90;90.50;;;;;;4922953;29;20465;-77
2020/12/20 08:30:24;;;;;;;11.02;7.43;;;8.80;90.60;;;;;;4922325;29;20037;-78
2020/12/20 08:32:49;;;;;;;7.20;4.85;;;8.90;91.30;;;;;;4955628;29;20483;-80
2020/12/20 08:35:21;;;;;;;4.93;4.40;;;8.90;91.40;;;;;;4922738;29;20038;-80
2020/12/20 08:37:53;;;;;;;4.88;4.38;;;8.70;97.80;;;;;;4923760;29;20449;-79
2020/12/20 08:40:19;;;;;;;7.47;4.78;;;;;;;;;;4938752;29;20050;-81
2020/12/20 08:42:46;;;;;;;7.32;4.85;;;;;;;;;;4921163;29;20027;-83
2020/12/20 08:45:20;;;;;;;7.75;5.90;;;9.00;90.90;;;;;;4908730;29;20389;-82
2020/12/20 08:47:45;;;;;;;62.10;26.00;;;9.10;99.90;;;;;;4948901;28;20485;-83
2020/12/20 08:50:12;;;;;;;27.60;13.75;;;8.80;99.90;;;;;;4917125;29;20034;-84
2020/12/20 08:52:38;;;;;;;18.30;10.15;;;;;;;;;;4916760;29;20043;-86
2020/12/20 08:55:05;;;;;;;15.65;7.82;;;9.00;90.80;;;;;;4918319;29;20041;-82
2020/12/20 08:57:31;;;;;;;19.00;13.10;;;9.10;99.90;;;;;;4910473;29;20086;-84
2020/12/20 09:00:11;;;;;;;7.85;6.20;;;9.30;99.50;;;;;;4917986;29;20110;-84
2020/12/20 09:02:52;;;;;;;12.38;9.60;;;8.80;99.20;;;;;;4915931;29;20366;-87
2020/12/20 09:05:18;;;;;;;9.48;5.80;;;;;;;;;;4908140;29;20063;-81
2020/12/20 09:07:45;;;;;;;12.20;6.05;;;9.10;91.00;;;;;;4923225;29;20030;-80
2020/12/20 09:10:25;;;;;;;5.63;4.88;;;8.90;97.30;;;;;;4918342;29;20032;-83
2020/12/20 09:12:55;;;;;;;7.10;6.45;;;9.00;99.90;;;;;;4911745;29;20070;-83
2020/12/20 09:15:30;;;;;;;10.27;6.95;;;9.10;91.20;;;;;;4926405;29;20094;-81
2020/12/20 09:17:57;;;;;;;6.90;5.18;;;9.20;91.10;;;;;;4926550;29;20028;-81
2020/12/20 09:20:24;;;;;;;10.25;6.07;;;9.20;91.20;;;;;;4922092;29;20043;-79
2020/12/20 09:22:54;;;;;;;8.52;5.28;;;9.30;90.80;;;;;;4921970;28;20027;-79
2020/12/20 09:25:39;;;;;;;8.48;6.32;;;9.20;95.10;;;;;;4937971;29;20027;-82
2020/12/20 09:28:09;;;;;;;8.25;5.53;;;9.60;90.50;;;;;;4937832;29;20050;-84
2020/12/20 09:30:38;;;;;;;7.60;5.68;;;9.90;98.30;;;;;;4921006;29;20137;-84
2020/12/20 09:33:27;;;;;;;9.63;6.18;;;9.50;99.90;;;;;;4921766;29;20506;-83
2020/12/20 09:35:53;;;;;;;8.98;6.55;;;9.70;97.50;;;;;;4922748;29;20035;-82
2020/12/20 09:38:19;;;;;;;9.88;5.97;;;;;;;;;;4913863;29;20027;-84
2020/12/20 09:40:45;;;;;;;6.93;4.82;;;9.90;88.80;;;;;;4902999;29;20040;-78
2020/12/20 09:43:18;;;;;;;5.55;4.03;;;9.90;89.20;;;;;;4935424;29;20074;-83
2020/12/20 09:45:44;;;;;;;7.03;5.40;;;;;;;;;;4904261;29;20023;-83
2020/12/20 09:48:10;;;;;;;7.07;4.82;;;10.60;95.10;;;;;;4938294;29;20031;-85
2020/12/20 09:50:36;;;;;;;5.28;4.45;;;10.50;86.30;;;;;;4910818;29;20038;-83
2020/12/20 09:53:02;;;;;;;4.60;4.10;;;10.90;93.10;;;;;;4918418;29;20569;-84
2020/12/20 09:55:30;;;;;;;8.02;4.35;;;;;;;;;;4934275;29;20032;-85
2020/12/20 09:57:56;;;;;;;6.18;4.82;;;11.10;99.90;;;;;;4936617;29;20050;-86
2020/12/20 10:00:22;;;;;;;5.72;4.68;;;;;;;;;;4919424;29;20031;-85
2020/12/20 10:03:40;;;;;;;5.72;4.95;;;11.00;91.30;;;;;;4938294;28;20106;-90
2020/12/20 10:06:17;;;;;;;6.32;4.70;;;11.20;82.90;;;;;;4954485;28;20059;-90
2020/12/20 10:08:49;;;;;;;6.32;4.15;;;11.20;83.10;;;;;;4904077;29;20490;-92
2020/12/20 10:11:21;;;;;;;5.03;4.53;;;11.00;93.10;;;;;;4903511;29;20035;-90
2020/12/20 10:13:47;;;;;;;5.72;4.75;;;11.30;87.90;;;;;;4900124;29;20071;-87
2020/12/20 10:16:19;;;;;;;5.00;4.40;;;11.10;93.40;;;;;;4918503;29;20027;-85
2020/12/20 10:18:45;;;;;;;12.77;8.43;;;11.20;99.90;;;;;;4940570;29;20035;-83
2020/12/20 10:21:17;;;;;;;10.82;7.50;;;11.70;86.60;;;;;;4902507;29;20042;-81
2020/12/20 10:23:43;;;;;;;4.93;4.30;;;;;;;;;;4923025;29;20114;-88
2020/12/20 10:26:15;;;;;;;10.02;6.55;;;11.60;99.90;;;;;;4922921;29;20039;-89
2020/12/20 10:28:41;;;;;;;12.48;8.98;;;;;;;;;;4922547;29;20028;-87
2020/12/20 10:31:07;;;;;;;6.72;5.53;;;11.30;99.90;;;;;;4953945;29;20523;-87
2020/12/20 10:33:33;;;;;;;5.13;3.75;;;;;;;;;;4944913;29;20046;-87
2020/12/20 10:35:58;;;;;;;5.95;3.70;;;11.70;81.00;;;;;;4925135;29;20034;-87
2020/12/20 10:38:24;;;;;;;4.40;3.03;;;;;;;;;;4925618;29;20034;-88
2020/12/20 10:40:50;;;;;;;2.45;2.20;;;11.40;99.90;;;;;;4925502;29;20058;-85
2020/12/20 10:43:16;;;;;;;2.42;1.90;;;;;;;;;;4909348;29;20035;-89
2020/12/20 10:45:42;;;;;;;2.00;1.80;;;;;;;;;;4925409;29;20035;-86
2020/12/20 10:48:08;;;;;;;1.48;1.38;;;;;;;;;;4925626;29;20042;-86
2020/12/20 10:50:34;;;;;;;2.08;1.70;;;11.60;82.60;;;;;;4924884;29;20020;-86
2020/12/20 10:53:00;;;;;;;5.03;1.88;;;;;;;;;;4909396;29;20389;-87
2020/12/20 10:55:26;;;;;;;2.28;1.58;;;;;;;;;;4925258;29;20024;-86
2020/12/20 10:57:52;;;;;;;1.83;1.73;;;;;;;;;;4924679;29;20029;-84
2020/12/20 11:00:18;;;;;;;1.80;1.70;;;;;;;;;;4925018;29;20061;-85
2020/12/20 11:02:44;;;;;;;2.00;1.90;;;;;;;;;;4924730;29;20027;-80
2020/12/20 11:05:09;;;;;;;1.90;1.80;;;11.60;93.50;;;;;;4957505;29;20640;-84
2020/12/20 11:07:35;;;;;;;2.33;1.80;;;11.80;82.40;;;;;;4908919;29;20032;-78
2020/12/20 11:10:00;;;;;;;3.30;2.00;;;12.00;99.90;;;;;;4940181;29;20524;-78
2020/12/20 11:12:26;;;;;;;3.35;1.83;;;;;;;;;;4908691;29;20034;-80
2020/12/20 11:14:52;;;;;;;1.75;1.65;;;13.40;99.90;;;;;;4940095;29;20086;-80
2020/12/20 11:17:18;;;;;;;2.67;1.60;;;13.10;81.50;;;;;;4940118;29;20030;-76
2020/12/20 11:19:44;;;;;;;1.50;1.40;;;;;;;;;;4957108;29;20047;-76
2020/12/20 11:22:12;;;;;;;2.10;1.90;;;;;;;;;;4957231;28;20035;-80
2020/12/20 11:24:38;;;;;;;1.77;1.67;;;14.20;96.40;;;;;;4956945;29;20019;-78
2020/12/20 11:27:04;;;;;;;1.88;1.77;;;14.00;86.90;;;;;;4938769;29;20031;-79
2020/12/20 11:29:29;;;;;;;3.75;2.72;;;14.10;73.10;;;;;;4922656;29;20413;-80
2020/12/20 11:31:55;;;;;;;2.05;1.40;;;13.40;93.00;;;;;;4938854;29;20098;-78
2020/12/20 11:34:22;;;;;;;2.42;2.20;;;13.30;97.40;;;;;;4922774;29;20027;-78
2020/12/20 11:36:48;;;;;;;3.65;3.00;;;;;;;;;;4939220;29;20041;-79
2020/12/20 11:39:15;;;;;;;4.85;2.10;;;;;;;;;;4923103;29;20134;-79
2020/12/20 11:41:41;;;;;;;7.97;4.82;;;13.20;98.20;;;;;;4956524;29;20020;-78
2020/12/20 11:44:07;;;;;;;20.02;10.32;;;13.20;77.70;;;;;;4923318;29;20045;-78
2020/12/20 11:46:33;;;;;;;45.90;21.85;;;;;;;;;;4923467;29;20027;-78
2020/12/20 11:48:59;;;;;;;21.40;12.23;;;13.00;91.60;;;;;;4956533;29;20075;-80
2020/12/20 11:51:26;;;;;;;2.90;2.05;;;12.90;93.30;;;;;;4938736;28;20032;-77
2020/12/20 11:53:54;;;;;;;1.85;1.70;;;12.20;91.20;;;;;;4923565;29;20047;-78
2020/12/20 11:56:19;;;;;;;3.85;1.90;;;12.20;91.70;;;;;;4939029;29;20371;-85
2020/12/20 11:58:45;;;;;;;1.67;1.58;;;;;;;;;;4939073;29;20055;-83
2020/12/20 12:01:11;;;;;;;2.08;1.60;;;;;;;;;;4957601;29;20035;-79
2020/12/20 12:03:37;;;;;;;1.85;1.67;;;;;;;;;;4939601;28;20019;-82
2020/12/20 12:06:04;;;;;;;3.08;2.00;;;;;;;;;;4939720;29;20039;-85
2020/12/20 12:08:30;;;;;;;2.40;2.20;;;11.50;84.50;;;;;;4939747;29;20518;-88
2020/12/20 12:10:55;;;;;;;8.13;2.42;;;12.20;93.00;;;;;;4939694;29;20122;-84
2020/12/20 12:13:21;;;;;;;1.52;1.42;;;;;;;;;;4939288;29;20034;-85
2020/12/20 12:15:47;;;;;;;0.95;0.95;;;12.00;92.50;;;;;;4939254;29;20027;-85
2020/12/20 12:18:13;;;;;;;1.33;1.30;;;11.80;99.20;;;;;;4939431;29;20060;-89
2020/12/20 12:20:39;;;;;;;1.52;1.42;;;;;;;;;;4939341;29;20126;-85
2020/12/20 12:23:05;;;;;;;1.30;1.20;;;;;;;;;;4939603;29;20063;-87
2020/12/20 12:25:31;;;;;;;1.30;1.30;;;11.40;88.80;;;;;;4939241;29;20031;-87
2020/12/20 12:27:57;;;;;;;1.77;1.42;;;;;;;;;;4939398;29;20086;-86
2020/12/20 12:30:23;;;;;;;1.70;1.60;;;;;;;;;;4939522;28;20130;-86
2020/12/20 12:32:52;;;;;;;1.80;1.50;;;11.20;99.90;;;;;;4939416;29;20563;-85
2020/12/20 12:35:18;;;;;;;1.13;1.13;;;;;;;;;;4939180;29;20070;-87
2020/12/20 12:37:44;;;;;;;1.75;1.58;;;;;;;;;;4956786;28;20028;-87
2020/12/20 12:40:10;;;;;;;1.60;1.50;;;;;;;;;;4939067;29;20035;-85
2020/12/20 12:42:36;;;;;;;1.88;1.77;;;;;;;;;;4939085;29;20094;-88
2020/12/20 12:45:02;;;;;;;1.70;1.60;;;;;;;;;;4939407;28;20118;-86
2020/12/20 12:47:28;;;;;;;1.20;1.10;;;;;;;;;;4939742;28;20023;-89
2020/12/20 12:49:54;;;;;;;1.25;1.25;;;;;;;;;;4938341;29;20082;-85
2020/12/20 12:52:20;;;;;;;1.95;1.38;;;;;;;;;;4909705;29;20023;-86
2020/12/20 12:54:46;;;;;;;1.52;1.42;;;;;;;;;;4920664;29;20081;-86
2020/12/20 12:57:13;;;;;;;1.45;1.40;;;;;;;;;;4909907;28;20481;-88
2020/12/20 12:59:39;;;;;;;1.23;1.23;;;;;;;;;;4909507;29;20147;-88
2020/12/20 13:02:05;;;;;;;0.93;0.93;;;;;;;;;;4883834;29;20028;-85
2020/12/20 13:04:33;;;;;;;0.80;0.80;;;;;;;;;;4912814;29;20027;-88
2020/12/20 13:06:59;;;;;;;1.13;1.13;;;;;;;;;;4882020;29;20111;-86
2020/12/20 13:09:25;;;;;;;1.30;1.20;;;;;;;;;;4881157;29;20535;-82
2020/12/20 13:11:51;;;;;;;1.95;1.70;;;10.50;85.10;;;;;;4897548;29;20036;-82
2020/12/20 13:14:17;;;;;;;2.08;1.70;;;;;;;;;;4883937;29;20396;-85
2020/12/20 13:16:48;;;;;;;2.00;1.50;;;10.50;84.60;;;;;;4918915;29;20035;-84
2020/12/20 13:19:14;;;;;;;1.77;1.67;;;;;;;;;;4903359;29;20081;-88
2020/12/20 13:21:41;;;;;;;1.70;1.60;;;;;;;;;;4900061;29;20033;-84
2020/12/20 13:24:07;;;;;;;2.92;2.15;;;;;;;;;;4899955;29;20024;-83